sensor_id;sensor_type;location;lat;lon;timestamp;pressure;altitude;pressure_sealevel;temperature;humidity
65534;BME280;53640;55.838;37.184;2022-09-11T00:01:17;99838.53;;;8.94;40.70
65534;BME280;53640;55.838;37.184;2022-09-11T00:03:44;99835.41;;;8.91;40.78
65534;BME280;53640;55.838;37.184;2022-09-11T00:06:14;99828.94;;;8.85;40.90
65534;BME280;53640;55.838;37.184;2022-09-11T00:08:42;99780.13;;;8.58;41.07
65534;BME280;53640;55.838;37.184;2022-09-11T00:11:13;99819.28;;;8.76;41.27
65534;BME280;53640;55.838;37.184;2022-09-11T00:13:44;99804.19;;;8.60;41.33
65534;BME280;53640;55.838;37.184;2022-09-11T00:16:26;99830.50;;;8.73;40.92
65534;BME280;53640;55.838;37.184;2022-09-11T00:18:55;99825.66;;;8.68;41.05
65534;BME280;53640;55.838;37.184;2022-09-11T00:21:24;99836.06;;;8.71;41.03
65534;BME280;53640;55.838;37.184;2022-09-11T00:23:51;99844.16;;;8.71;40.87
65534;BME280;53640;55.838;37.184;2022-09-11T00:26:19;99789.50;;;8.41;41.62
65534;BME280;53640;55.838;37.184;2022-09-11T00:28:46;99825.72;;;8.53;41.96
65534;BME280;53640;55.838;37.184;2022-09-11T00:31:22;99832.41;;;8.57;41.88
65534;BME280;53640;55.838;37.184;2022-09-11T00:33:48;99812.75;;;8.42;41.76
65534;BME280;53640;55.838;37.184;2022-09-11T00:36:23;99804.16;;;8.32;42.07
65534;BME280;53640;55.838;37.184;2022-09-11T00:38:51;99793.47;;;8.24;41.98
65534;BME280;53640;55.838;37.184;2022-09-11T00:41:22;99834.78;;;8.46;42.20
65534;BME280;53640;55.838;37.184;2022-09-11T00:46:35;99794.34;;;8.09;42.61
65534;BME280;53640;55.838;37.184;2022-09-11T00:49:10;99821.81;;;8.20;42.57
65534;BME280;53640;55.838;37.184;2022-09-11T00:51:40;99829.53;;;8.23;42.55
65534;BME280;53640;55.838;37.184;2022-09-11T00:54:08;99801.31;;;8.04;42.33
65534;BME280;53640;55.838;37.184;2022-09-11T00:56:39;99737.88;;;7.65;42.62
65534;BME280;53640;55.838;37.184;2022-09-11T00:59:07;99790.88;;;7.94;42.92
65534;BME280;53640;55.838;37.184;2022-09-11T01:01:35;99821.31;;;8.09;42.63
65534;BME280;53640;55.838;37.184;2022-09-11T01:04:03;99816.28;;;8.06;42.89
65534;BME280;53640;55.838;37.184;2022-09-11T01:06:31;99817.03;;;8.00;42.41
65534;BME280;53640;55.838;37.184;2022-09-11T01:08:58;99796.47;;;7.78;43.08
65534;BME280;53640;55.838;37.184;2022-09-11T01:11:35;99820.22;;;7.89;43.37
65534;BME280;53640;55.838;37.184;2022-09-11T01:17:29;99804.56;;;7.63;43.86
65534;BME280;53640;55.838;37.184;2022-09-11T01:22:46;99794.09;;;7.38;44.87
65534;BME280;53640;55.838;37.184;2022-09-11T01:25:25;99833.47;;;7.54;45.61
65534;BME280;53640;55.838;37.184;2022-09-11T01:27:57;99794.84;;;7.18;46.27
65534;BME280;53640;55.838;37.184;2022-09-11T01:33:25;99827.34;;;7.31;46.20
65534;BME280;53640;55.838;37.184;2022-09-11T01:38:49;99825.59;;;7.23;45.73
65534;BME280;53640;55.838;37.184;2022-09-11T01:41:31;99804.50;;;7.12;46.13
65534;BME280;53640;55.838;37.184;2022-09-11T01:44:08;99774.97;;;6.89;46.05
65534;BME280;53640;55.838;37.184;2022-09-11T01:46:39;99799.56;;;7.01;46.26
65534;BME280;53640;55.838;37.184;2022-09-11T01:49:26;99817.97;;;7.12;45.83
65534;BME280;53640;55.838;37.184;2022-09-11T01:51:59;99797.34;;;7.04;45.83
65534;BME280;53640;55.838;37.184;2022-09-11T01:54:33;99797.50;;;7.03;45.95
65534;BME280;53640;55.838;37.184;2022-09-11T01:57:08;99757.84;;;6.82;45.51
65534;BME280;53640;55.838;37.184;2022-09-11T01:59:43;99790.09;;;7.05;45.35
65534;BME280;53640;55.838;37.184;2022-09-11T02:02:11;99804.13;;;7.15;45.64
65534;BME280;53640;55.838;37.184;2022-09-11T02:04:46;99800.31;;;7.09;45.40
65534;BME280;53640;55.838;37.184;2022-09-11T02:07:19;99790.47;;;7.02;45.27
65534;BME280;53640;55.838;37.184;2022-09-11T02:10:03;99802.16;;;7.09;45.35
65534;BME280;53640;55.838;37.184;2022-09-11T02:12:43;99812.38;;;7.13;45.38
65534;BME280;53640;55.838;37.184;2022-09-11T02:15:14;99805.34;;;7.12;45.46
65534;BME280;53640;55.838;37.184;2022-09-11T02:18:00;99776.28;;;6.93;45.06
65534;BME280;53640;55.838;37.184;2022-09-11T02:20:28;99782.94;;;6.97;44.95
65534;BME280;53640;55.838;37.184;2022-09-11T02:22:56;99785.34;;;7.07;45.03
65534;BME280;53640;55.838;37.184;2022-09-11T02:25:24;99813.50;;;7.19;45.02
65534;BME280;53640;55.838;37.184;2022-09-11T02:27:55;99782.38;;;7.02;45.00
65534;BME280;53640;55.838;37.184;2022-09-11T02:30:22;99769.50;;;6.97;44.85
65534;BME280;53640;55.838;37.184;2022-09-11T02:32:48;99777.56;;;6.97;45.00
65534;BME280;53640;55.838;37.184;2022-09-11T02:35:15;99790.94;;;7.05;45.11
65534;BME280;53640;55.838;37.184;2022-09-11T02:37:57;99800.97;;;7.11;45.08
65534;BME280;53640;55.838;37.184;2022-09-11T02:46:37;99808.38;;;7.09;45.13
65534;BME280;53640;55.838;37.184;2022-09-11T02:54:52;99738.41;;;6.57;45.63
65534;BME280;53640;55.838;37.184;2022-09-11T02:57:31;99775.38;;;6.78;45.83
65534;BME280;53640;55.838;37.184;2022-09-11T03:00:04;99793.50;;;6.84;45.82
65534;BME280;53640;55.838;37.184;2022-09-11T03:02:33;99768.94;;;6.64;45.96
65534;BME280;53640;55.838;37.184;2022-09-11T03:05:04;99790.69;;;6.77;45.98
65534;BME280;53640;55.838;37.184;2022-09-11T03:07:31;99751.84;;;6.57;45.63
65534;BME280;53640;55.838;37.184;2022-09-11T03:10:04;99741.19;;;6.49;46.15
65534;BME280;53640;55.838;37.184;2022-09-11T03:12:31;99769.50;;;6.59;46.46
65534;BME280;53640;55.838;37.184;2022-09-11T03:14:57;99741.25;;;6.40;46.69
65534;BME280;53640;55.838;37.184;2022-09-11T03:17:23;99748.84;;;6.37;46.89
65534;BME280;53640;55.838;37.184;2022-09-11T03:19:50;99744.66;;;6.34;46.65
65534;BME280;53640;55.838;37.184;2022-09-11T03:22:18;99768.91;;;6.49;46.63
65534;BME280;53640;55.838;37.184;2022-09-11T03:24:44;99779.31;;;6.52;46.97
65534;BME280;53640;55.838;37.184;2022-09-11T03:27:11;99774.09;;;6.51;47.01
65534;BME280;53640;55.838;37.184;2022-09-11T03:29:39;99778.13;;;6.55;46.73
65534;BME280;53640;55.838;37.184;2022-09-11T03:32:06;99788.31;;;6.59;46.62
65534;BME280;53640;55.838;37.184;2022-09-11T03:34:34;99771.81;;;6.62;45.99
65534;BME280;53640;55.838;37.184;2022-09-11T03:37:01;99765.78;;;6.60;46.17
65534;BME280;53640;55.838;37.184;2022-09-11T03:39:27;99779.47;;;6.74;45.95
65534;BME280;53640;55.838;37.184;2022-09-11T03:41:54;99751.31;;;6.61;46.01
65534;BME280;53640;55.838;37.184;2022-09-11T03:44:22;99767.94;;;6.80;45.53
65534;BME280;53640;55.838;37.184;2022-09-11T03:46:48;99760.63;;;6.74;45.71
65534;BME280;53640;55.838;37.184;2022-09-11T03:49:14;99762.91;;;6.77;45.93
65534;BME280;53640;55.838;37.184;2022-09-11T03:51:41;99752.81;;;6.79;45.86
65534;BME280;53640;55.838;37.184;2022-09-11T03:54:07;99767.41;;;6.84;45.78
65534;BME280;53640;55.838;37.184;2022-09-11T03:56:34;99733.25;;;6.70;45.40
65534;BME280;53640;55.838;37.184;2022-09-11T03:59:02;99767.88;;;6.88;45.41
65534;BME280;53640;55.838;37.184;2022-09-11T04:01:29;99771.16;;;6.98;45.41
65534;BME280;53640;55.838;37.184;2022-09-11T04:03:56;99687.19;;;6.50;45.48
65534;BME280;53640;55.838;37.184;2022-09-11T04:06:29;99738.19;;;6.81;45.49
65534;BME280;53640;55.838;37.184;2022-09-11T04:08:58;99741.38;;;6.85;45.57
65534;BME280;53640;55.838;37.184;2022-09-11T04:11:24;99774.97;;;7.04;45.72
65534;BME280;53640;55.838;37.184;2022-09-11T04:13:54;99768.75;;;7.03;45.72
65534;BME280;53640;55.838;37.184;2022-09-11T04:16:20;99738.34;;;6.80;45.70
65534;BME280;53640;55.838;37.184;2022-09-11T04:18:51;99761.97;;;6.93;46.00
65534;BME280;53640;55.838;37.184;2022-09-11T04:21:19;99770.59;;;7.03;45.84
65534;BME280;53640;55.838;37.184;2022-09-11T04:23:51;99768.75;;;7.03;45.97
65534;BME280;53640;55.838;37.184;2022-09-11T04:26:30;99732.91;;;6.88;45.41
65534;BME280;53640;55.838;37.184;2022-09-11T04:29:20;99738.38;;;6.95;45.62
65534;BME280;53640;55.838;37.184;2022-09-11T04:31:48;99772.09;;;7.20;45.45
65534;BME280;53640;55.838;37.184;2022-09-11T04:34:15;99743.97;;;7.08;45.57
65534;BME280;53640;55.838;37.184;2022-09-11T04:36:41;99743.41;;;7.12;45.48
65534;BME280;53640;55.838;37.184;2022-09-11T04:39:14;99750.19;;;7.23;45.80
65534;BME280;53640;55.838;37.184;2022-09-11T04:41:43;99768.75;;;7.33;45.54
65534;BME280;53640;55.838;37.184;2022-09-11T04:44:10;99725.66;;;7.18;45.40
65534;BME280;53640;55.838;37.184;2022-09-11T04:46:41;99746.47;;;7.39;45.55
65534;BME280;53640;55.838;37.184;2022-09-11T04:49:08;99718.34;;;7.27;45.38
65534;BME280;53640;55.838;37.184;2022-09-11T04:51:39;99738.84;;;7.43;45.27
65534;BME280;53640;55.838;37.184;2022-09-11T04:54:12;99702.81;;;7.29;45.28
65534;BME280;53640;55.838;37.184;2022-09-11T04:56:39;99731.94;;;7.55;45.12
65534;BME280;53640;55.838;37.184;2022-09-11T04:59:17;99772.28;;;7.84;45.22
65534;BME280;53640;55.838;37.184;2022-09-11T05:02:10;99757.97;;;7.84;45.14
65534;BME280;53640;55.838;37.184;2022-09-11T05:04:40;99758.13;;;7.97;45.16
65534;BME280;53640;55.838;37.184;2022-09-11T05:07:07;99749.78;;;7.92;44.86
65534;BME280;53640;55.838;37.184;2022-09-11T05:09:34;99695.59;;;7.66;44.65
65534;BME280;53640;55.838;37.184;2022-09-11T05:12:01;99778.78;;;8.26;44.72
65534;BME280;53640;55.838;37.184;2022-09-11T05:14:31;99772.81;;;8.31;44.45
65534;BME280;53640;55.838;37.184;2022-09-11T05:16:58;99769.72;;;8.34;44.52
65534;BME280;53640;55.838;37.184;2022-09-11T05:19:28;99779.63;;;8.48;44.34
65534;BME280;53640;55.838;37.184;2022-09-11T05:21:54;99742.97;;;8.32;44.08
65534;BME280;53640;55.838;37.184;2022-09-11T05:24:22;99788.31;;;8.72;44.04
65534;BME280;53640;55.838;37.184;2022-09-11T05:26:51;99764.03;;;8.72;44.03
65534;BME280;53640;55.838;37.184;2022-09-11T05:29:17;99767.28;;;8.89;44.13
65534;BME280;53640;55.838;37.184;2022-09-11T05:31:56;99760.69;;;8.98;43.62
65534;BME280;53640;55.838;37.184;2022-09-11T05:34:27;99747.22;;;9.04;43.90
65534;BME280;53640;55.838;37.184;2022-09-11T05:36:57;99664.53;;;8.62;43.31
65534;BME280;53640;55.838;37.184;2022-09-11T05:39:27;99679.41;;;8.86;43.34
65534;BME280;53640;55.838;37.184;2022-09-11T05:41:54;99744.22;;;9.55;43.03
65534;BME280;53640;55.838;37.184;2022-09-11T05:44:24;99756.16;;;9.88;42.77
65534;BME280;53640;55.838;37.184;2022-09-11T05:46:50;99708.72;;;9.85;42.81
65534;BME280;53640;55.838;37.184;2022-09-11T05:49:17;99646.72;;;9.70;42.11
65534;BME280;53640;55.838;37.184;2022-09-11T05:51:44;99747.94;;;10.55;41.72
65534;BME280;53640;55.838;37.184;2022-09-11T05:54:12;99744.22;;;10.76;40.75
65534;BME280;53640;55.838;37.184;2022-09-11T05:56:44;99687.78;;;10.67;40.47
65534;BME280;53640;55.838;37.184;2022-09-11T05:59:31;99766.22;;;11.33;40.14
65534;BME280;53640;55.838;37.184;2022-09-11T06:01:58;99586.00;;;10.46;39.54
65534;BME280;53640;55.838;37.184;2022-09-11T06:04:39;99693.03;;;11.33;39.00
65534;BME280;53640;55.838;37.184;2022-09-11T06:07:24;99674.09;;;11.26;38.68
65534;BME280;53640;55.838;37.184;2022-09-11T06:10:19;99649.44;;;11.35;38.86
65534;BME280;53640;55.838;37.184;2022-09-11T06:13:07;99666.41;;;11.62;38.85
65534;BME280;53640;55.838;37.184;2022-09-11T06:15:49;99636.41;;;11.57;38.28
65534;BME280;53640;55.838;37.184;2022-09-11T06:18:34;99606.00;;;11.48;38.55
65534;BME280;53640;55.838;37.184;2022-09-11T06:21:31;99717.81;;;12.20;37.96
65534;BME280;53640;55.838;37.184;2022-09-11T06:29:02;99616.22;;;11.84;37.54
65534;BME280;53640;55.838;37.184;2022-09-11T06:31:29;99743.16;;;12.64;37.26
65534;BME280;53640;55.838;37.184;2022-09-11T06:33:56;99743.94;;;12.71;37.45
65534;BME280;53640;55.838;37.184;2022-09-11T06:36:24;99702.38;;;12.45;37.23
65534;BME280;53640;55.838;37.184;2022-09-11T06:38:58;99640.81;;;12.14;37.05
65534;BME280;53640;55.838;37.184;2022-09-11T06:41:27;99592.00;;;11.89;36.97
65534;BME280;53640;55.838;37.184;2022-09-11T06:44:03;99619.78;;;12.10;37.04
65534;BME280;53640;55.838;37.184;2022-09-11T06:46:32;99703.56;;;12.75;36.95
65534;BME280;53640;55.838;37.184;2022-09-11T06:49:00;99729.59;;;12.89;36.28
65534;BME280;53640;55.838;37.184;2022-09-11T06:51:28;99694.22;;;12.70;35.93
65534;BME280;53640;55.838;37.184;2022-09-11T06:53:58;99724.47;;;12.99;36.69
65534;BME280;53640;55.838;37.184;2022-09-11T06:56:31;99709.31;;;12.91;36.24
65534;BME280;53640;55.838;37.184;2022-09-11T06:58:59;99736.94;;;13.07;35.82
65534;BME280;53640;55.838;37.184;2022-09-11T07:01:45;99731.97;;;13.22;36.35
65534;BME280;53640;55.838;37.184;2022-09-11T07:04:12;99720.59;;;13.32;36.32
65534;BME280;53640;55.838;37.184;2022-09-11T07:06:45;99717.97;;;13.55;36.19
65534;BME280;53640;55.838;37.184;2022-09-11T07:09:17;99676.56;;;13.53;35.43
65534;BME280;53640;55.838;37.184;2022-09-11T07:12:29;99724.72;;;14.01;34.72
65534;BME280;53640;55.838;37.184;2022-09-11T07:22:14;99608.88;;;13.33;33.89
65534;BME280;53640;55.838;37.184;2022-09-11T07:24:40;99674.22;;;13.75;33.74
65534;BME280;53640;55.838;37.184;2022-09-11T07:27:31;99638.53;;;13.65;33.70
65534;BME280;53640;55.838;37.184;2022-09-11T07:30:22;99716.47;;;14.08;33.20
65534;BME280;53640;55.838;37.184;2022-09-11T07:33:03;99598.63;;;13.47;32.82
65534;BME280;53640;55.838;37.184;2022-09-11T07:35:30;99571.75;;;13.39;32.42
65534;BME280;53640;55.838;37.184;2022-09-11T07:37:59;99708.22;;;14.26;31.89
65534;BME280;53640;55.838;37.184;2022-09-11T07:40:55;99634.88;;;14.01;32.49
65534;BME280;53640;55.838;37.184;2022-09-11T07:43:23;99628.00;;;13.87;32.00
65534;BME280;53640;55.838;37.184;2022-09-11T07:50:29;99706.22;;;14.33;31.48
65534;BME280;53640;55.838;37.184;2022-09-11T07:54:04;99602.03;;;13.42;31.57
65534;BME280;53640;55.838;37.184;2022-09-11T07:57:20;99569.72;;;13.34;31.71
65534;BME280;53640;55.838;37.184;2022-09-11T07:59:49;99576.00;;;13.35;31.86
65534;BME280;53640;55.838;37.184;2022-09-11T08:02:17;99667.56;;;14.01;31.88
65534;BME280;53640;55.838;37.184;2022-09-11T08:05:04;99560.94;;;13.51;31.85
65534;BME280;53640;55.838;37.184;2022-09-11T08:07:33;99587.16;;;13.87;31.78
65534;BME280;53640;55.838;37.184;2022-09-11T08:10:14;99563.63;;;13.81;30.85
65534;BME280;53640;55.838;37.184;2022-09-11T08:12:40;99663.03;;;14.49;30.79
65534;BME280;53640;55.838;37.184;2022-09-11T08:15:07;99606.75;;;14.31;30.49
65534;BME280;53640;55.838;37.184;2022-09-11T08:17:34;99681.84;;;14.85;30.67
65534;BME280;53640;55.838;37.184;2022-09-11T08:20:00;99589.59;;;14.30;30.56
65534;BME280;53640;55.838;37.184;2022-09-11T08:22:29;99616.47;;;14.50;30.27
65534;BME280;53640;55.838;37.184;2022-09-11T08:24:56;99586.97;;;14.47;30.20
65534;BME280;53640;55.838;37.184;2022-09-11T08:27:25;99646.09;;;14.70;30.17
65534;BME280;53640;55.838;37.184;2022-09-11T08:29:52;99573.84;;;14.21;30.12
65534;BME280;53640;55.838;37.184;2022-09-11T08:32:20;99575.25;;;14.11;30.34
65534;BME280;53640;55.838;37.184;2022-09-11T08:34:47;99532.38;;;13.83;30.80
65534;BME280;53640;55.838;37.184;2022-09-11T08:37:14;99581.78;;;14.22;30.66
65534;BME280;53640;55.838;37.184;2022-09-11T08:39:40;99540.44;;;13.78;30.56
65534;BME280;53640;55.838;37.184;2022-09-11T08:42:13;99574.44;;;14.11;30.59
65534;BME280;53640;55.838;37.184;2022-09-11T08:44:58;99555.34;;;13.99;30.90
65534;BME280;53640;55.838;37.184;2022-09-11T08:48:05;99686.94;;;14.82;29.97
65534;BME280;53640;55.838;37.184;2022-09-11T08:50:49;99638.34;;;14.55;30.08
65534;BME280;53640;55.838;37.184;2022-09-11T08:54:15;99600.94;;;14.51;30.15
65534;BME280;53640;55.838;37.184;2022-09-11T09:00:31;99556.28;;;14.52;30.19
65534;BME280;53640;55.838;37.184;2022-09-11T09:07:52;99670.09;;;15.49;29.45
65534;BME280;53640;55.838;37.184;2022-09-11T09:18:05;99665.59;;;15.83;29.54
65534;BME280;53640;55.838;37.184;2022-09-11T09:21:09;99677.72;;;16.04;28.66
65534;BME280;53640;55.838;37.184;2022-09-11T09:23:52;99553.50;;;15.56;28.39
65534;BME280;53640;55.838;37.184;2022-09-11T09:26:55;99658.25;;;16.46;28.04
65534;BME280;53640;55.838;37.184;2022-09-11T09:34:16;99650.34;;;16.66;27.35
65534;BME280;53640;55.838;37.184;2022-09-11T09:37:26;99618.13;;;16.68;27.08
65534;BME280;53640;55.838;37.184;2022-09-11T09:40:05;99551.81;;;16.56;26.54
65534;BME280;53640;55.838;37.184;2022-09-11T09:47:00;99644.81;;;17.44;25.99
65534;BME280;53640;55.838;37.184;2022-09-11T10:03:52;99596.97;;;16.08;27.67
65534;BME280;53640;55.838;37.184;2022-09-11T10:07:19;99662.97;;;16.33;27.82
65534;BME280;53640;55.838;37.184;2022-09-11T10:10:28;99658.94;;;16.24;27.62
65534;BME280;53640;55.838;37.184;2022-09-11T10:13:53;99650.94;;;16.18;27.90
65534;BME280;53640;55.838;37.184;2022-09-11T10:16:38;99636.28;;;16.07;28.02
65534;BME280;53640;55.838;37.184;2022-09-11T10:23:26;99572.75;;;15.49;28.42
65534;BME280;53640;55.838;37.184;2022-09-11T10:26:45;99642.63;;;15.96;28.44
65534;BME280;53640;55.838;37.184;2022-09-11T10:29:31;99630.56;;;15.92;28.45
65534;BME280;53640;55.838;37.184;2022-09-11T10:32:12;99576.31;;;15.38;28.61
65534;BME280;53640;55.838;37.184;2022-09-11T10:35:00;99596.34;;;15.55;28.71
65534;BME280;53640;55.838;37.184;2022-09-11T10:37:39;99538.94;;;15.22;28.90
65534;BME280;53640;55.838;37.184;2022-09-11T10:44:11;99639.31;;;15.77;28.73
65534;BME280;53640;55.838;37.184;2022-09-11T10:47:29;99634.06;;;15.58;28.69
65534;BME280;53640;55.838;37.184;2022-09-11T10:50:24;99570.34;;;15.24;28.33
65534;BME280;53640;55.838;37.184;2022-09-11T10:53:21;99628.00;;;15.56;28.63
65534;BME280;53640;55.838;37.184;2022-09-11T10:56:26;99545.94;;;14.89;29.32
65534;BME280;53640;55.838;37.184;2022-09-11T10:59:16;99581.44;;;15.06;29.09
65534;BME280;53640;55.838;37.184;2022-09-11T11:02:20;99606.84;;;15.23;29.51
65534;BME280;53640;55.838;37.184;2022-09-11T11:08:21;99615.66;;;15.25;29.02
65534;BME280;53640;55.838;37.184;2022-09-11T11:36:43;99595.56;;;15.03;30.04
65534;BME280;53640;55.838;37.184;2022-09-11T11:43:23;99606.06;;;15.11;30.39
65534;BME280;53640;55.838;37.184;2022-09-11T11:46:37;99545.41;;;14.75;30.34
65534;BME280;53640;55.838;37.184;2022-09-11T11:53:11;99562.16;;;14.96;30.33
65534;BME280;53640;55.838;37.184;2022-09-11T11:59:29;99591.69;;;15.27;30.13
65534;BME280;53640;55.838;37.184;2022-09-11T12:06:12;99534.00;;;14.78;29.68
65534;BME280;53640;55.838;37.184;2022-09-11T12:08:53;99492.44;;;14.48;29.39
65534;BME280;53640;55.838;37.184;2022-09-11T12:11:39;99478.75;;;14.42;29.95
65534;BME280;53640;55.838;37.184;2022-09-11T12:14:32;99552.72;;;14.86;30.04
65534;BME280;53640;55.838;37.184;2022-09-11T12:17:42;99498.03;;;14.64;30.48
65534;BME280;53640;55.838;37.184;2022-09-11T12:29:53;99578.13;;;15.04;30.25
65534;BME280;53640;55.838;37.184;2022-09-11T12:32:59;99571.88;;;14.92;30.35
65534;BME280;53640;55.838;37.184;2022-09-11T12:36:46;99572.47;;;14.94;30.50
65534;BME280;53640;55.838;37.184;2022-09-11T12:39:50;99487.16;;;14.29;30.61
65534;BME280;53640;55.838;37.184;2022-09-11T12:42:45;99562.22;;;14.72;30.12
65534;BME280;53640;55.838;37.184;2022-09-11T12:50:03;99485.22;;;14.53;29.93
65534;BME280;53640;55.838;37.184;2022-09-11T12:52:58;99562.97;;;14.96;29.77
65534;BME280;53640;55.838;37.184;2022-09-11T12:56:16;99564.84;;;15.07;29.92
65534;BME280;53640;55.838;37.184;2022-09-11T12:59:05;99506.06;;;14.71;30.00
65534;BME280;53640;55.838;37.184;2022-09-11T13:02:26;99555.44;;;15.15;29.68
65534;BME280;53640;55.838;37.184;2022-09-11T13:05:36;99570.25;;;15.19;29.56
65534;BME280;53640;55.838;37.184;2022-09-11T13:08:55;99554.69;;;15.20;29.16
65534;BME280;53640;55.838;37.184;2022-09-11T13:11:49;99519.69;;;15.00;29.52
65534;BME280;53640;55.838;37.184;2022-09-11T13:18:23;99532.94;;;15.08;29.32
65534;BME280;53640;55.838;37.184;2022-09-11T13:21:41;99564.59;;;15.09;29.49
65534;BME280;53640;55.838;37.184;2022-09-11T13:24:29;99556.69;;;14.96;29.13
65534;BME280;53640;55.838;37.184;2022-09-11T13:27:33;99537.78;;;14.77;29.41
65534;BME280;53640;55.838;37.184;2022-09-11T13:34:45;99546.81;;;14.66;29.52
65534;BME280;53640;55.838;37.184;2022-09-11T13:45:10;99531.78;;;14.40;30.11
65534;BME280;53640;55.838;37.184;2022-09-11T13:47:42;99521.50;;;14.30;30.13
65534;BME280;53640;55.838;37.184;2022-09-11T13:50:46;99401.66;;;13.55;30.51
65534;BME280;53640;55.838;37.184;2022-09-11T13:53:37;99501.28;;;14.26;30.40
65534;BME280;53640;55.838;37.184;2022-09-11T14:00:34;99519.16;;;14.34;30.68
65534;BME280;53640;55.838;37.184;2022-09-11T14:03:57;99521.16;;;14.27;30.57
65534;BME280;53640;55.838;37.184;2022-09-11T14:06:53;99519.16;;;14.22;30.65
65534;BME280;53640;55.838;37.184;2022-09-11T14:10:04;99481.03;;;13.99;31.04
65534;BME280;53640;55.838;37.184;2022-09-11T14:19:23;99500.94;;;14.23;30.86
65534;BME280;53640;55.838;37.184;2022-09-11T14:22:21;99496.53;;;14.22;30.90
65534;BME280;53640;55.838;37.184;2022-09-11T14:28:31;99390.06;;;13.48;31.21
65534;BME280;53640;55.838;37.184;2022-09-11T14:31:40;99494.06;;;14.08;31.29
65534;BME280;53640;55.838;37.184;2022-09-11T14:34:43;99478.81;;;13.96;31.49
65534;BME280;53640;55.838;37.184;2022-09-11T14:37:40;99447.69;;;13.80;31.55
65534;BME280;53640;55.838;37.184;2022-09-11T14:40:36;99488.16;;;14.00;31.38
65534;BME280;53640;55.838;37.184;2022-09-11T14:44:23;99475.25;;;13.95;31.51
65534;BME280;53640;55.838;37.184;2022-09-11T14:47:41;99442.22;;;13.68;31.68
65534;BME280;53640;55.838;37.184;2022-09-11T14:50:19;99422.81;;;13.53;31.61
65534;BME280;53640;55.838;37.184;2022-09-11T14:53:27;99467.91;;;13.84;31.81
65534;BME280;53640;55.838;37.184;2022-09-11T14:56:52;99470.75;;;13.89;31.87
65534;BME280;53640;55.838;37.184;2022-09-11T14:59:46;99415.25;;;13.55;31.69
65534;BME280;53640;55.838;37.184;2022-09-11T15:02:38;99470.41;;;13.85;31.83
65534;BME280;53640;55.838;37.184;2022-09-11T15:05:52;99457.16;;;13.77;31.83
65534;BME280;53640;55.838;37.184;2022-09-11T15:08:48;99465.19;;;13.84;31.96
65534;BME280;53640;55.838;37.184;2022-09-11T15:11:53;99420.44;;;13.56;32.08
65534;BME280;53640;55.838;37.184;2022-09-11T15:15:18;99459.88;;;13.77;32.15
65534;BME280;53640;55.838;37.184;2022-09-11T15:18:53;99453.00;;;13.75;32.18
65534;BME280;53640;55.838;37.184;2022-09-11T15:21:44;99451.38;;;13.74;32.26
65534;BME280;53640;55.838;37.184;2022-09-11T15:24:19;99365.09;;;13.15;32.16
65534;BME280;53640;55.838;37.184;2022-09-11T15:27:27;99425.53;;;13.53;32.55
65534;BME280;53640;55.838;37.184;2022-09-11T15:30:53;99448.13;;;13.65;32.57
65534;BME280;53640;55.838;37.184;2022-09-11T15:34:05;99444.22;;;13.61;32.55
65534;BME280;53640;55.838;37.184;2022-09-11T15:36:42;99450.13;;;13.58;32.44
65534;BME280;53640;55.838;37.184;2022-09-11T15:39:39;99440.09;;;13.58;32.70
65534;BME280;53640;55.838;37.184;2022-09-11T15:43:25;99440.56;;;13.55;32.78
65534;BME280;53640;55.838;37.184;2022-09-11T15:46:28;99429.91;;;13.54;32.69
65534;BME280;53640;55.838;37.184;2022-09-11T15:49:51;99420.91;;;13.41;32.96
65534;BME280;53640;55.838;37.184;2022-09-11T15:52:42;99429.19;;;13.47;32.92
65534;BME280;53640;55.838;37.184;2022-09-11T15:55:47;99420.91;;;13.41;33.09
65534;BME280;53640;55.838;37.184;2022-09-11T15:58:43;99428.50;;;13.39;32.91
65534;BME280;53640;55.838;37.184;2022-09-11T16:02:07;99425.63;;;13.34;32.90
65534;BME280;53640;55.838;37.184;2022-09-11T16:05:07;99425.06;;;13.32;33.28
65534;BME280;53640;55.838;37.184;2022-09-11T16:08:04;99403.25;;;13.09;32.67
65534;BME280;53640;55.838;37.184;2022-09-11T16:10:45;99391.41;;;12.91;32.80
65534;BME280;53640;55.838;37.184;2022-09-11T16:14:06;99419.69;;;13.14;33.12
65534;BME280;53640;55.838;37.184;2022-09-11T16:17:01;99435.28;;;13.18;33.12
65534;BME280;53640;55.838;37.184;2022-09-11T16:20:08;99405.25;;;13.02;33.48
65534;BME280;53640;55.838;37.184;2022-09-11T16:23:12;99391.63;;;12.90;33.46
65534;BME280;53640;55.838;37.184;2022-09-11T16:25:45;99301.00;;;12.31;33.75
65534;BME280;53640;55.838;37.184;2022-09-11T16:28:11;99318.97;;;12.43;33.38
65534;BME280;53640;55.838;37.184;2022-09-11T16:30:41;99279.81;;;12.21;33.65
65534;BME280;53640;55.838;37.184;2022-09-11T16:33:11;99357.59;;;12.76;33.32
65534;BME280;53640;55.838;37.184;2022-09-11T16:36:16;99314.03;;;12.52;33.47
65534;BME280;53640;55.838;37.184;2022-09-11T16:38:46;99434.38;;;13.25;33.50
65534;BME280;53640;55.838;37.184;2022-09-11T16:41:20;99301.19;;;12.29;33.45
65534;BME280;53640;55.838;37.184;2022-09-11T16:44:07;99301.44;;;12.28;33.93
65534;BME280;53640;55.838;37.184;2022-09-11T16:46:39;99318.09;;;12.31;33.56
65534;BME280;53640;55.838;37.184;2022-09-11T16:49:17;99350.38;;;12.51;33.84
65534;BME280;53640;55.838;37.184;2022-09-11T16:51:51;99322.88;;;12.17;33.87
65534;BME280;53640;55.838;37.184;2022-09-11T16:54:23;99400.50;;;12.67;34.06
65534;BME280;53640;55.838;37.184;2022-09-11T16:56:52;99325.94;;;12.21;34.24
65534;BME280;53640;55.838;37.184;2022-09-11T16:59:22;99350.06;;;12.29;34.34
65534;BME280;53640;55.838;37.184;2022-09-11T17:02:14;99305.41;;;11.95;34.61
65534;BME280;53640;55.838;37.184;2022-09-11T17:05:29;99323.28;;;12.03;34.60
65534;BME280;53640;55.838;37.184;2022-09-11T17:07:58;99355.22;;;12.19;34.65
65534;BME280;53640;55.838;37.184;2022-09-11T17:10:27;99319.44;;;11.92;34.66